sensor_id;sensor_type;location;lat;lon;timestamp;temperature;humidity
20416;DHT22;10367;52.202;5.996;2023-05-07T00:00:53;14.20;99.90
20416;DHT22;10367;52.202;5.996;2023-05-07T00:03:22;14.10;99.90
20416;DHT22;10367;52.202;5.996;2023-05-07T00:05:55;14.10;99.90
20416;DHT22;10367;52.202;5.996;2023-05-07T00:08:28;14.00;99.90
20416;DHT22;10367;52.202;5.996;2023-05-07T00:11:03;14.00;99.90
20416;DHT22;10367;52.202;5.996;2023-05-07T00:13:34;14.00;99.90
20416;DHT22;10367;52.202;5.996;2023-05-07T00:16:03;14.00;99.90
20416;DHT22;10367;52.202;5.996;2023-05-07T00:18:32;14.00;99.90
20416;DHT22;10367;52.202;5.996;2023-05-07T00:21:01;14.00;99.90
20416;DHT22;10367;52.202;5.996;2023-05-07T00:23:31;14.00;99.90
20416;DHT22;10367;52.202;5.996;2023-05-07T00:26:00;14.00;99.90
20416;DHT22;10367;52.202;5.996;2023-05-07T00:28:29;14.00;99.90
20416;DHT22;10367;52.202;5.996;2023-05-07T00:30:57;14.00;99.90
20416;DHT22;10367;52.202;5.996;2023-05-07T00:33:26;14.00;99.90
20416;DHT22;10367;52.202;5.996;2023-05-07T00:35:57;14.10;99.90
20416;DHT22;10367;52.202;5.996;2023-05-07T00:38:28;14.10;99.90
20416;DHT22;10367;52.202;5.996;2023-05-07T00:40:58;14.10;99.90
20416;DHT22;10367;52.202;5.996;2023-05-07T00:43:32;14.10;99.90
20416;DHT22;10367;52.202;5.996;2023-05-07T00:46:01;14.00;99.90
20416;DHT22;10367;52.202;5.996;2023-05-07T00:48:30;14.00;99.90
20416;DHT22;10367;52.202;5.996;2023-05-07T00:51:00;14.00;99.90
20416;DHT22;10367;52.202;5.996;2023-05-07T00:53:30;14.00;99.90
20416;DHT22;10367;52.202;5.996;2023-05-07T00:56:00;14.00;99.90
20416;DHT22;10367;52.202;5.996;2023-05-07T00:58:30;14.00;99.90
20416;DHT22;10367;52.202;5.996;2023-05-07T01:00:59;14.00;99.90
20416;DHT22;10367;52.202;5.996;2023-05-07T01:03:28;14.00;99.90
20416;DHT22;10367;52.202;5.996;2023-05-07T01:05:59;14.00;99.90
20416;DHT22;10367;52.202;5.996;2023-05-07T01:08:30;13.90;99.90
20416;DHT22;10367;52.202;5.996;2023-05-07T01:11:01;13.90;99.90
20416;DHT22;10367;52.202;5.996;2023-05-07T01:13:31;13.80;99.90
20416;DHT22;10367;52.202;5.996;2023-05-07T01:16:00;13.80;99.90
20416;DHT22;10367;52.202;5.996;2023-05-07T01:18:29;13.80;99.90
20416;DHT22;10367;52.202;5.996;2023-05-07T01:21:04;13.70;99.90
20416;DHT22;10367;52.202;5.996;2023-05-07T01:23:34;13.70;99.90
20416;DHT22;10367;52.202;5.996;2023-05-07T01:26:06;13.60;99.90
20416;DHT22;10367;52.202;5.996;2023-05-07T01:28:35;13.60;99.90
20416;DHT22;10367;52.202;5.996;2023-05-07T01:31:05;13.60;99.90
20416;DHT22;10367;52.202;5.996;2023-05-07T01:33:41;13.60;99.90
20416;DHT22;10367;52.202;5.996;2023-05-07T01:36:13;13.50;99.90
20416;DHT22;10367;52.202;5.996;2023-05-07T01:38:46;13.50;99.90
20416;DHT22;10367;52.202;5.996;2023-05-07T01:41:15;13.50;99.90
20416;DHT22;10367;52.202;5.996;2023-05-07T01:43:44;13.50;99.90
20416;DHT22;10367;52.202;5.996;2023-05-07T01:46:14;13.50;99.90
20416;DHT22;10367;52.202;5.996;2023-05-07T01:48:44;13.50;99.90
20416;DHT22;10367;52.202;5.996;2023-05-07T01:51:13;13.50;99.90
20416;DHT22;10367;52.202;5.996;2023-05-07T01:53:43;13.60;99.90
20416;DHT22;10367;52.202;5.996;2023-05-07T01:56:15;13.60;99.90
20416;DHT22;10367;52.202;5.996;2023-05-07T01:58:44;13.50;99.90
20416;DHT22;10367;52.202;5.996;2023-05-07T02:01:13;13.50;99.90
20416;DHT22;10367;52.202;5.996;2023-05-07T02:03:42;13.50;99.90
20416;DHT22;10367;52.202;5.996;2023-05-07T02:06:11;13.50;99.90
20416;DHT22;10367;52.202;5.996;2023-05-07T02:08:40;13.50;99.90
20416;DHT22;10367;52.202;5.996;2023-05-07T02:11:10;13.50;99.90
20416;DHT22;10367;52.202;5.996;2023-05-07T02:13:38;13.50;99.90
20416;DHT22;10367;52.202;5.996;2023-05-07T02:16:07;13.50;99.90
20416;DHT22;10367;52.202;5.996;2023-05-07T02:18:36;13.50;99.90
20416;DHT22;10367;52.202;5.996;2023-05-07T02:21:05;13.50;99.90
20416;DHT22;10367;52.202;5.996;2023-05-07T02:23:34;13.50;99.90
20416;DHT22;10367;52.202;5.996;2023-05-07T02:26:03;13.50;99.90
20416;DHT22;10367;52.202;5.996;2023-05-07T02:28:35;13.50;99.90
20416;DHT22;10367;52.202;5.996;2023-05-07T02:31:04;13.50;99.90
20416;DHT22;10367;52.202;5.996;2023-05-07T02:33:33;13.50;99.90
20416;DHT22;10367;52.202;5.996;2023-05-07T02:36:06;13.50;99.90
20416;DHT22;10367;52.202;5.996;2023-05-07T02:38:35;13.50;99.90
20416;DHT22;10367;52.202;5.996;2023-05-07T02:41:04;13.40;99.90
20416;DHT22;10367;52.202;5.996;2023-05-07T02:43:32;13.40;99.90
20416;DHT22;10367;52.202;5.996;2023-05-07T02:46:03;13.40;99.90
20416;DHT22;10367;52.202;5.996;2023-05-07T02:48:33;13.40;99.90
20416;DHT22;10367;52.202;5.996;2023-05-07T02:51:04;13.40;99.90
20416;DHT22;10367;52.202;5.996;2023-05-07T02:53:33;13.30;99.90
20416;DHT22;10367;52.202;5.996;2023-05-07T02:56:02;13.30;99.90
20416;DHT22;10367;52.202;5.996;2023-05-07T02:58:31;13.30;99.90
20416;DHT22;10367;52.202;5.996;2023-05-07T03:00:59;13.30;99.90
20416;DHT22;10367;52.202;5.996;2023-05-07T03:03:29;13.30;99.90
20416;DHT22;10367;52.202;5.996;2023-05-07T03:05:58;13.30;99.90
20416;DHT22;10367;52.202;5.996;2023-05-07T03:08:27;13.30;99.90
20416;DHT22;10367;52.202;5.996;2023-05-07T03:10:55;13.30;99.90
20416;DHT22;10367;52.202;5.996;2023-05-07T03:13:24;13.30;99.90
20416;DHT22;10367;52.202;5.996;2023-05-07T03:15:53;13.30;99.90
20416;DHT22;10367;52.202;5.996;2023-05-07T03:18:22;13.30;99.90
20416;DHT22;10367;52.202;5.996;2023-05-07T03:20:52;13.30;99.90
20416;DHT22;10367;52.202;5.996;2023-05-07T03:23:23;13.30;99.90
20416;DHT22;10367;52.202;5.996;2023-05-07T03:25:52;13.30;99.90
20416;DHT22;10367;52.202;5.996;2023-05-07T03:28:21;13.30;99.90
20416;DHT22;10367;52.202;5.996;2023-05-07T03:30:49;13.30;99.90
20416;DHT22;10367;52.202;5.996;2023-05-07T03:33:19;13.30;99.90
20416;DHT22;10367;52.202;5.996;2023-05-07T03:35:47;13.30;99.90
20416;DHT22;10367;52.202;5.996;2023-05-07T03:38:17;13.30;99.90
20416;DHT22;10367;52.202;5.996;2023-05-07T03:40:46;13.30;99.90
20416;DHT22;10367;52.202;5.996;2023-05-07T03:43:15;13.30;99.90
20416;DHT22;10367;52.202;5.996;2023-05-07T03:45:44;13.30;99.90
20416;DHT22;10367;52.202;5.996;2023-05-07T03:48:12;13.30;99.90
20416;DHT22;10367;52.202;5.996;2023-05-07T03:50:41;13.30;99.90
20416;DHT22;10367;52.202;5.996;2023-05-07T03:53:10;13.30;99.90
20416;DHT22;10367;52.202;5.996;2023-05-07T03:55:40;13.30;99.90
20416;DHT22;10367;52.202;5.996;2023-05-07T03:58:09;13.30;99.90
20416;DHT22;10367;52.202;5.996;2023-05-07T04:00:39;13.30;99.90
20416;DHT22;10367;52.202;5.996;2023-05-07T04:03:08;13.30;99.90
20416;DHT22;10367;52.202;5.996;2023-05-07T04:05:37;13.30;99.90
20416;DHT22;10367;52.202;5.996;2023-05-07T04:08:07;13.30;99.90
20416;DHT22;10367;52.202;5.996;2023-05-07T04:10:35;13.30;99.90
20416;DHT22;10367;52.202;5.996;2023-05-07T04:13:06;13.30;99.90
20416;DHT22;10367;52.202;5.996;2023-05-07T04:15:35;13.30;99.90
20416;DHT22;10367;52.202;5.996;2023-05-07T04:18:04;13.30;99.90
20416;DHT22;10367;52.202;5.996;2023-05-07T04:20:34;13.30;99.90
20416;DHT22;10367;52.202;5.996;2023-05-07T04:23:04;13.30;99.90
20416;DHT22;10367;52.202;5.996;2023-05-07T04:25:32;13.30;99.90
20416;DHT22;10367;52.202;5.996;2023-05-07T04:28:01;13.30;99.90
20416;DHT22;10367;52.202;5.996;2023-05-07T04:30:31;13.30;99.90
20416;DHT22;10367;52.202;5.996;2023-05-07T04:33:00;13.30;99.90
20416;DHT22;10367;52.202;5.996;2023-05-07T04:35:29;13.30;99.90
20416;DHT22;10367;52.202;5.996;2023-05-07T04:37:58;13.30;99.90
20416;DHT22;10367;52.202;5.996;2023-05-07T04:40:27;13.30;99.90
20416;DHT22;10367;52.202;5.996;2023-05-07T04:42:55;13.30;99.90
20416;DHT22;10367;52.202;5.996;2023-05-07T04:45:24;13.30;99.90
20416;DHT22;10367;52.202;5.996;2023-05-07T04:47:54;13.30;99.90
20416;DHT22;10367;52.202;5.996;2023-05-07T04:50:23;13.40;99.90
20416;DHT22;10367;52.202;5.996;2023-05-07T04:52:52;13.40;99.90
20416;DHT22;10367;52.202;5.996;2023-05-07T04:55:21;13.50;99.90
20416;DHT22;10367;52.202;5.996;2023-05-07T04:57:50;13.50;99.90
20416;DHT22;10367;52.202;5.996;2023-05-07T05:00:18;13.60;99.90
20416;DHT22;10367;52.202;5.996;2023-05-07T05:02:47;13.60;99.90
20416;DHT22;10367;52.202;5.996;2023-05-07T05:05:18;13.60;99.90
20416;DHT22;10367;52.202;5.996;2023-05-07T05:07:47;13.60;99.90
20416;DHT22;10367;52.202;5.996;2023-05-07T05:10:16;13.60;99.90
20416;DHT22;10367;52.202;5.996;2023-05-07T05:12:44;13.60;99.90
20416;DHT22;10367;52.202;5.996;2023-05-07T05:15:13;13.60;99.90
20416;DHT22;10367;52.202;5.996;2023-05-07T05:17:47;13.60;99.90
20416;DHT22;10367;52.202;5.996;2023-05-07T05:20:17;13.60;99.90
20416;DHT22;10367;52.202;5.996;2023-05-07T05:22:46;13.60;99.90
20416;DHT22;10367;52.202;5.996;2023-05-07T05:25:15;13.60;99.90
20416;DHT22;10367;52.202;5.996;2023-05-07T05:27:43;13.60;99.90
20416;DHT22;10367;52.202;5.996;2023-05-07T05:30:12;13.70;99.90
20416;DHT22;10367;52.202;5.996;2023-05-07T05:32:41;13.70;99.90
20416;DHT22;10367;52.202;5.996;2023-05-07T05:35:10;13.70;99.90
20416;DHT22;10367;52.202;5.996;2023-05-07T05:37:40;13.70;99.90
20416;DHT22;10367;52.202;5.996;2023-05-07T05:40:10;13.80;99.90
20416;DHT22;10367;52.202;5.996;2023-05-07T05:42:41;13.80;99.90
20416;DHT22;10367;52.202;5.996;2023-05-07T05:45:14;13.80;99.90
20416;DHT22;10367;52.202;5.996;2023-05-07T05:47:42;13.90;99.90
20416;DHT22;10367;52.202;5.996;2023-05-07T05:50:12;13.90;99.90
20416;DHT22;10367;52.202;5.996;2023-05-07T05:52:42;13.90;99.90
20416;DHT22;10367;52.202;5.996;2023-05-07T05:55:10;13.80;99.90
20416;DHT22;10367;52.202;5.996;2023-05-07T05:57:39;13.90;99.90
20416;DHT22;10367;52.202;5.996;2023-05-07T06:00:09;13.90;99.90
20416;DHT22;10367;52.202;5.996;2023-05-07T06:02:38;13.80;99.90
20416;DHT22;10367;52.202;5.996;2023-05-07T06:05:07;13.90;99.90
20416;DHT22;10367;52.202;5.996;2023-05-07T06:07:36;13.90;99.90
20416;DHT22;10367;52.202;5.996;2023-05-07T06:10:07;13.90;99.90
20416;DHT22;10367;52.202;5.996;2023-05-07T06:12:40;13.90;99.90
20416;DHT22;10367;52.202;5.996;2023-05-07T06:15:10;13.90;99.90
20416;DHT22;10367;52.202;5.996;2023-05-07T06:17:39;13.90;99.90
20416;DHT22;10367;52.202;5.996;2023-05-07T06:20:08;14.00;99.90
20416;DHT22;10367;52.202;5.996;2023-05-07T06:22:37;14.00;99.90
20416;DHT22;10367;52.202;5.996;2023-05-07T06:25:08;14.00;99.90
20416;DHT22;10367;52.202;5.996;2023-05-07T06:27:37;14.10;99.90
20416;DHT22;10367;52.202;5.996;2023-05-07T06:30:07;14.20;99.90
20416;DHT22;10367;52.202;5.996;2023-05-07T06:32:39;14.20;99.90
20416;DHT22;10367;52.202;5.996;2023-05-07T06:35:09;14.20;99.90
20416;DHT22;10367;52.202;5.996;2023-05-07T06:37:38;14.20;99.90
20416;DHT22;10367;52.202;5.996;2023-05-07T06:40:15;14.20;99.90
20416;DHT22;10367;52.202;5.996;2023-05-07T06:42:44;14.20;99.90
20416;DHT22;10367;52.202;5.996;2023-05-07T06:45:13;14.20;99.90
20416;DHT22;10367;52.202;5.996;2023-05-07T06:47:42;14.20;99.90
20416;DHT22;10367;52.202;5.996;2023-05-07T06:50:12;14.10;99.90
20416;DHT22;10367;52.202;5.996;2023-05-07T06:52:43;14.10;99.90
20416;DHT22;10367;52.202;5.996;2023-05-07T06:55:13;14.10;99.90
20416;DHT22;10367;52.202;5.996;2023-05-07T06:57:42;14.10;99.90
20416;DHT22;10367;52.202;5.996;2023-05-07T07:00:12;14.20;99.90
20416;DHT22;10367;52.202;5.996;2023-05-07T07:02:41;14.30;99.90
20416;DHT22;10367;52.202;5.996;2023-05-07T07:05:09;14.40;99.90
20416;DHT22;10367;52.202;5.996;2023-05-07T07:07:38;14.40;99.90
20416;DHT22;10367;52.202;5.996;2023-05-07T07:10:08;14.40;99.90
20416;DHT22;10367;52.202;5.996;2023-05-07T07:12:39;14.40;99.90
20416;DHT22;10367;52.202;5.996;2023-05-07T07:15:08;14.40;99.90
20416;DHT22;10367;52.202;5.996;2023-05-07T07:17:37;14.50;99.90
20416;DHT22;10367;52.202;5.996;2023-05-07T07:20:09;14.40;99.90
20416;DHT22;10367;52.202;5.996;2023-05-07T07:22:41;14.40;99.90
20416;DHT22;10367;52.202;5.996;2023-05-07T07:25:10;14.30;99.90
20416;DHT22;10367;52.202;5.996;2023-05-07T07:27:40;14.40;99.90
20416;DHT22;10367;52.202;5.996;2023-05-07T07:30:09;14.40;99.90
20416;DHT22;10367;52.202;5.996;2023-05-07T07:32:39;14.50;99.90
20416;DHT22;10367;52.202;5.996;2023-05-07T07:35:08;14.60;99.90
20416;DHT22;10367;52.202;5.996;2023-05-07T07:37:37;14.70;99.90
20416;DHT22;10367;52.202;5.996;2023-05-07T07:40:07;14.70;99.90
20416;DHT22;10367;52.202;5.996;2023-05-07T07:42:37;14.80;99.90
20416;DHT22;10367;52.202;5.996;2023-05-07T07:45:10;15.00;99.90
20416;DHT22;10367;52.202;5.996;2023-05-07T07:47:39;14.90;99.90
20416;DHT22;10367;52.202;5.996;2023-05-07T07:50:11;15.00;99.90
20416;DHT22;10367;52.202;5.996;2023-05-07T07:52:51;15.00;99.90
20416;DHT22;10367;52.202;5.996;2023-05-07T07:55:20;15.10;99.90
20416;DHT22;10367;52.202;5.996;2023-05-07T07:57:50;15.10;99.90
20416;DHT22;10367;52.202;5.996;2023-05-07T08:00:20;15.10;99.90
20416;DHT22;10367;52.202;5.996;2023-05-07T08:02:49;15.20;99.90
20416;DHT22;10367;52.202;5.996;2023-05-07T08:05:19;15.40;99.90
20416;DHT22;10367;52.202;5.996;2023-05-07T08:07:47;15.50;99.90
20416;DHT22;10367;52.202;5.996;2023-05-07T08:10:22;15.60;99.90
20416;DHT22;10367;52.202;5.996;2023-05-07T08:12:51;15.70;99.90
20416;DHT22;10367;52.202;5.996;2023-05-07T08:15:21;15.90;99.90
20416;DHT22;10367;52.202;5.996;2023-05-07T08:17:50;16.20;99.90
20416;DHT22;10367;52.202;5.996;2023-05-07T08:20:19;16.20;99.90
20416;DHT22;10367;52.202;5.996;2023-05-07T08:22:47;16.20;99.90
20416;DHT22;10367;52.202;5.996;2023-05-07T08:25:16;16.00;99.90
20416;DHT22;10367;52.202;5.996;2023-05-07T08:27:45;16.00;99.90
20416;DHT22;10367;52.202;5.996;2023-05-07T08:30:14;16.10;99.90
20416;DHT22;10367;52.202;5.996;2023-05-07T08:32:44;16.30;99.90
20416;DHT22;10367;52.202;5.996;2023-05-07T08:35:13;16.40;99.90
20416;DHT22;10367;52.202;5.996;2023-05-07T08:37:42;16.30;99.90
20416;DHT22;10367;52.202;5.996;2023-05-07T08:40:12;16.20;99.90
20416;DHT22;10367;52.202;5.996;2023-05-07T08:42:41;16.20;99.90
20416;DHT22;10367;52.202;5.996;2023-05-07T08:45:10;16.40;99.90
20416;DHT22;10367;52.202;5.996;2023-05-07T08:47:44;16.70;99.90
20416;DHT22;10367;52.202;5.996;2023-05-07T08:50:13;16.90;99.90
20416;DHT22;10367;52.202;5.996;2023-05-07T08:52:42;17.10;99.90
20416;DHT22;10367;52.202;5.996;2023-05-07T08:55:12;17.30;99.90
20416;DHT22;10367;52.202;5.996;2023-05-07T08:57:41;17.10;99.90
20416;DHT22;10367;52.202;5.996;2023-05-07T09:00:11;16.90;99.90
20416;DHT22;10367;52.202;5.996;2023-05-07T09:02:40;16.80;99.90
20416;DHT22;10367;52.202;5.996;2023-05-07T09:05:10;16.80;99.90
20416;DHT22;10367;52.202;5.996;2023-05-07T09:07:39;17.00;99.90
20416;DHT22;10367;52.202;5.996;2023-05-07T09:10:09;17.20;99.90
20416;DHT22;10367;52.202;5.996;2023-05-07T09:12:38;17.40;99.90
20416;DHT22;10367;52.202;5.996;2023-05-07T09:15:08;17.40;99.90
20416;DHT22;10367;52.202;5.996;2023-05-07T09:17:37;17.40;99.90
20416;DHT22;10367;52.202;5.996;2023-05-07T09:20:07;17.30;99.90
20416;DHT22;10367;52.202;5.996;2023-05-07T09:22:39;17.20;99.90
20416;DHT22;10367;52.202;5.996;2023-05-07T09:25:08;17.40;99.90
20416;DHT22;10367;52.202;5.996;2023-05-07T09:27:38;17.40;99.90
20416;DHT22;10367;52.202;5.996;2023-05-07T09:30:07;17.40;99.90
20416;DHT22;10367;52.202;5.996;2023-05-07T09:32:36;17.70;99.90
20416;DHT22;10367;52.202;5.996;2023-05-07T09:35:14;17.90;99.90
20416;DHT22;10367;52.202;5.996;2023-05-07T09:37:45;17.90;99.90
20416;DHT22;10367;52.202;5.996;2023-05-07T09:40:21;17.80;99.90
20416;DHT22;10367;52.202;5.996;2023-05-07T09:42:50;17.70;99.90
20416;DHT22;10367;52.202;5.996;2023-05-07T09:45:23;17.40;99.90
20416;DHT22;10367;52.202;5.996;2023-05-07T09:48:06;17.70;99.90
20416;DHT22;10367;52.202;5.996;2023-05-07T09:50:37;17.60;99.90
20416;DHT22;10367;52.202;5.996;2023-05-07T09:53:10;17.60;99.90
20416;DHT22;10367;52.202;5.996;2023-05-07T09:55:39;17.60;99.90
20416;DHT22;10367;52.202;5.996;2023-05-07T09:58:09;17.60;99.90
20416;DHT22;10367;52.202;5.996;2023-05-07T10:00:41;17.70;99.90
20416;DHT22;10367;52.202;5.996;2023-05-07T10:03:13;17.60;99.90
20416;DHT22;10367;52.202;5.996;2023-05-07T10:05:43;17.60;99.90
20416;DHT22;10367;52.202;5.996;2023-05-07T10:08:14;17.70;99.90
20416;DHT22;10367;52.202;5.996;2023-05-07T10:10:44;17.80;99.90
20416;DHT22;10367;52.202;5.996;2023-05-07T10:13:13;17.90;99.90
20416;DHT22;10367;52.202;5.996;2023-05-07T10:15:42;17.80;99.90
20416;DHT22;10367;52.202;5.996;2023-05-07T10:18:13;17.60;99.90
20416;DHT22;10367;52.202;5.996;2023-05-07T10:20:43;17.60;99.90
20416;DHT22;10367;52.202;5.996;2023-05-07T10:23:20;17.60;99.90
20416;DHT22;10367;52.202;5.996;2023-05-07T10:25:50;17.60;99.90
20416;DHT22;10367;52.202;5.996;2023-05-07T10:28:27;17.70;99.90
20416;DHT22;10367;52.202;5.996;2023-05-07T10:31:05;17.80;99.90
20416;DHT22;10367;52.202;5.996;2023-05-07T10:33:39;18.00;99.90
20416;DHT22;10367;52.202;5.996;2023-05-07T10:36:08;18.30;99.90
20416;DHT22;10367;52.202;5.996;2023-05-07T10:38:37;18.20;99.90
20416;DHT22;10367;52.202;5.996;2023-05-07T10:41:07;18.10;99.90
20416;DHT22;10367;52.202;5.996;2023-05-07T10:43:40;18.00;99.90
20416;DHT22;10367;52.202;5.996;2023-05-07T10:46:11;18.00;99.90
20416;DHT22;10367;52.202;5.996;2023-05-07T10:49:12;18.00;99.90
20416;DHT22;10367;52.202;5.996;2023-05-07T10:51:41;18.00;99.90
20416;DHT22;10367;52.202;5.996;2023-05-07T10:54:20;18.00;99.90
20416;DHT22;10367;52.202;5.996;2023-05-07T10:56:49;18.10;99.90
20416;DHT22;10367;52.202;5.996;2023-05-07T10:59:35;18.10;99.90
20416;DHT22;10367;52.202;5.996;2023-05-07T11:02:10;18.10;99.90
20416;DHT22;10367;52.202;5.996;2023-05-07T11:04:43;18.40;99.90
20416;DHT22;10367;52.202;5.996;2023-05-07T11:07:25;18.80;99.90
20416;DHT22;10367;52.202;5.996;2023-05-07T11:10:04;19.00;99.90
20416;DHT22;10367;52.202;5.996;2023-05-07T11:12:52;19.40;99.90
20416;DHT22;10367;52.202;5.996;2023-05-07T11:15:41;20.00;99.90
20416;DHT22;10367;52.202;5.996;2023-05-07T11:18:15;20.80;99.90
20416;DHT22;10367;52.202;5.996;2023-05-07T11:20:47;20.90;99.90
20416;DHT22;10367;52.202;5.996;2023-05-07T11:23:57;21.20;99.90
20416;DHT22;10367;52.202;5.996;2023-05-07T11:26:28;20.90;99.90
20416;DHT22;10367;52.202;5.996;2023-05-07T11:28:58;20.80;99.90
20416;DHT22;10367;52.202;5.996;2023-05-07T11:31:28;20.90;99.90
20416;DHT22;10367;52.202;5.996;2023-05-07T11:33:57;21.10;99.90
20416;DHT22;10367;52.202;5.996;2023-05-07T11:36:32;21.30;99.90
20416;DHT22;10367;52.202;5.996;2023-05-07T11:39:01;21.10;99.90
20416;DHT22;10367;52.202;5.996;2023-05-07T11:41:37;20.90;99.90
20416;DHT22;10367;52.202;5.996;2023-05-07T11:44:08;21.00;99.90
20416;DHT22;10367;52.202;5.996;2023-05-07T11:46:37;21.20;99.90
20416;DHT22;10367;52.202;5.996;2023-05-07T11:49:14;21.50;99.90
20416;DHT22;10367;52.202;5.996;2023-05-07T11:51:45;21.50;99.90
20416;DHT22;10367;52.202;5.996;2023-05-07T11:54:16;21.50;99.90
20416;DHT22;10367;52.202;5.996;2023-05-07T11:56:45;21.70;99.90
20416;DHT22;10367;52.202;5.996;2023-05-07T11:59:18;22.00;99.90
20416;DHT22;10367;52.202;5.996;2023-05-07T12:01:50;21.80;99.90
20416;DHT22;10367;52.202;5.996;2023-05-07T12:04:21;21.70;99.90
20416;DHT22;10367;52.202;5.996;2023-05-07T12:06:55;21.80;99.90
20416;DHT22;10367;52.202;5.996;2023-05-07T12:09:24;22.10;99.90
20416;DHT22;10367;52.202;5.996;2023-05-07T12:11:53;22.00;99.90
20416;DHT22;10367;52.202;5.996;2023-05-07T12:14:27;21.80;99.90
20416;DHT22;10367;52.202;5.996;2023-05-07T12:16:56;21.60;99.90
20416;DHT22;10367;52.202;5.996;2023-05-07T12:19:25;21.70;99.90
20416;DHT22;10367;52.202;5.996;2023-05-07T12:21:55;22.10;99.90
20416;DHT22;10367;52.202;5.996;2023-05-07T12:24:25;22.30;99.90
20416;DHT22;10367;52.202;5.996;2023-05-07T12:26:54;22.10;99.90
20416;DHT22;10367;52.202;5.996;2023-05-07T12:29:22;21.80;99.90
20416;DHT22;10367;52.202;5.996;2023-05-07T12:31:51;21.80;99.90
20416;DHT22;10367;52.202;5.996;2023-05-07T12:34:20;21.70;99.90
20416;DHT22;10367;52.202;5.996;2023-05-07T12:36:51;21.70;99.90
20416;DHT22;10367;52.202;5.996;2023-05-07T12:39:21;21.70;99.90
20416;DHT22;10367;52.202;5.996;2023-05-07T12:41:53;21.70;99.90
20416;DHT22;10367;52.202;5.996;2023-05-07T12:44:23;21.60;99.90
20416;DHT22;10367;52.202;5.996;2023-05-07T12:46:52;21.40;99.90
20416;DHT22;10367;52.202;5.996;2023-05-07T12:49:21;21.40;99.90
20416;DHT22;10367;52.202;5.996;2023-05-07T12:51:54;21.30;99.90
20416;DHT22;10367;52.202;5.996;2023-05-07T12:54:32;21.40;99.90
20416;DHT22;10367;52.202;5.996;2023-05-07T12:57:05;21.50;99.90
20416;DHT22;10367;52.202;5.996;2023-05-07T12:59:35;21.50;99.90
20416;DHT22;10367;52.202;5.996;2023-05-07T13:02:04;21.50;99.90
20416;DHT22;10367;52.202;5.996;2023-05-07T13:04:34;21.50;99.90
20416;DHT22;10367;52.202;5.996;2023-05-07T13:07:03;21.80;99.90
20416;DHT22;10367;52.202;5.996;2023-05-07T13:09:33;21.80;99.90
20416;DHT22;10367;52.202;5.996;2023-05-07T13:12:04;21.80;99.90
20416;DHT22;10367;52.202;5.996;2023-05-07T13:14:34;21.80;99.90
20416;DHT22;10367;52.202;5.996;2023-05-07T13:17:03;22.00;99.90
20416;DHT22;10367;52.202;5.996;2023-05-07T13:19:31;22.40;99.90
20416;DHT22;10367;52.202;5.996;2023-05-07T13:22:05;22.50;99.90
20416;DHT22;10367;52.202;5.996;2023-05-07T13:24:37;22.20;99.90
20416;DHT22;10367;52.202;5.996;2023-05-07T13:27:11;22.00;99.90
20416;DHT22;10367;52.202;5.996;2023-05-07T13:29:43;22.00;99.90
20416;DHT22;10367;52.202;5.996;2023-05-07T13:32:12;22.10;99.90
20416;DHT22;10367;52.202;5.996;2023-05-07T13:34:42;22.20;99.90
20416;DHT22;10367;52.202;5.996;2023-05-07T13:37:13;22.10;99.90
20416;DHT22;10367;52.202;5.996;2023-05-07T13:39:43;21.80;99.90
20416;DHT22;10367;52.202;5.996;2023-05-07T13:42:13;21.60;99.90
20416;DHT22;10367;52.202;5.996;2023-05-07T13:44:42;21.80;99.90
20416;DHT22;10367;52.202;5.996;2023-05-07T13:47:11;21.70;99.90
20416;DHT22;10367;52.202;5.996;2023-05-07T13:49:40;21.70;99.90
20416;DHT22;10367;52.202;5.996;2023-05-07T13:52:11;21.60;99.90
20416;DHT22;10367;52.202;5.996;2023-05-07T13:54:40;21.40;99.90
20416;DHT22;10367;52.202;5.996;2023-05-07T13:57:10;21.30;99.90
20416;DHT22;10367;52.202;5.996;2023-05-07T13:59:42;21.20;99.90
20416;DHT22;10367;52.202;5.996;2023-05-07T14:02:11;21.20;99.90
20416;DHT22;10367;52.202;5.996;2023-05-07T14:04:40;21.30;99.90
20416;DHT22;10367;52.202;5.996;2023-05-07T14:07:09;21.20;99.90
20416;DHT22;10367;52.202;5.996;2023-05-07T14:09:37;21.20;99.90
20416;DHT22;10367;52.202;5.996;2023-05-07T14:12:07;21.00;99.90
20416;DHT22;10367;52.202;5.996;2023-05-07T14:14:39;21.10;99.90
20416;DHT22;10367;52.202;5.996;2023-05-07T14:17:11;21.00;99.90
20416;DHT22;10367;52.202;5.996;2023-05-07T14:19:40;21.10;99.90
20416;DHT22;10367;52.202;5.996;2023-05-07T14:22:10;21.00;99.90
20416;DHT22;10367;52.202;5.996;2023-05-07T14:24:39;20.90;99.90
20416;DHT22;10367;52.202;5.996;2023-05-07T14:27:08;20.80;99.90
20416;DHT22;10367;52.202;5.996;2023-05-07T14:29:39;20.70;99.90
20416;DHT22;10367;52.202;5.996;2023-05-07T14:32:10;20.60;99.90
20416;DHT22;10367;52.202;5.996;2023-05-07T14:34:39;20.40;99.90
20416;DHT22;10367;52.202;5.996;2023-05-07T14:37:08;20.30;99.90
20416;DHT22;10367;52.202;5.996;2023-05-07T14:39:36;20.20;99.90
20416;DHT22;10367;52.202;5.996;2023-05-07T14:42:05;20.10;99.90
20416;DHT22;10367;52.202;5.996;2023-05-07T14:44:35;20.00;99.90
20416;DHT22;10367;52.202;5.996;2023-05-07T14:47:05;19.90;99.90
20416;DHT22;10367;52.202;5.996;2023-05-07T14:49:34;19.90;99.90
20416;DHT22;10367;52.202;5.996;2023-05-07T14:52:03;19.90;99.90
20416;DHT22;10367;52.202;5.996;2023-05-07T14:54:33;19.90;99.90
20416;DHT22;10367;52.202;5.996;2023-05-07T14:57:05;19.80;99.90
20416;DHT22;10367;52.202;5.996;2023-05-07T14:59:34;19.80;99.90
20416;DHT22;10367;52.202;5.996;2023-05-07T15:02:05;19.70;99.90
20416;DHT22;10367;52.202;5.996;2023-05-07T15:04:35;19.60;99.90
20416;DHT22;10367;52.202;5.996;2023-05-07T15:07:05;19.50;99.90
20416;DHT22;10367;52.202;5.996;2023-05-07T15:09:34;19.40;99.90
20416;DHT22;10367;52.202;5.996;2023-05-07T15:12:03;19.40;99.90
20416;DHT22;10367;52.202;5.996;2023-05-07T15:14:31;19.30;99.90
20416;DHT22;10367;52.202;5.996;2023-05-07T15:17:00;19.20;99.90
20416;DHT22;10367;52.202;5.996;2023-05-07T15:19:30;19.20;99.90
20416;DHT22;10367;52.202;5.996;2023-05-07T15:21:59;19.20;99.90
20416;DHT22;10367;52.202;5.996;2023-05-07T15:24:29;19.00;99.90
20416;DHT22;10367;52.202;5.996;2023-05-07T15:26:58;18.90;99.90
20416;DHT22;10367;52.202;5.996;2023-05-07T15:29:28;18.70;99.90
20416;DHT22;10367;52.202;5.996;2023-05-07T15:31:57;18.60;99.90
20416;DHT22;10367;52.202;5.996;2023-05-07T15:34:26;18.50;99.90
20416;DHT22;10367;52.202;5.996;2023-05-07T15:36:56;18.40;99.90
20416;DHT22;10367;52.202;5.996;2023-05-07T15:39:25;18.20;99.90
20416;DHT22;10367;52.202;5.996;2023-05-07T15:41:54;18.30;99.90
20416;DHT22;10367;52.202;5.996;2023-05-07T15:44:22;18.30;99.90
20416;DHT22;10367;52.202;5.996;2023-05-07T15:46:54;18.20;99.90
20416;DHT22;10367;52.202;5.996;2023-05-07T15:49:23;18.00;99.90